Airfield :
LOGIN :

Register | Disclaimer

   EN    FR    IT 

 










Legend :    VFR   Marginal VFR   IFR   Intensive IFR   Very Intensive IFR
Visi :
Ceiling :
>= 8 km
>= 3000ft
5 to 8 km
1000 to 3000 ft
1500m to 5 km
500 to 1000 ft
800 to 1500m
200 to 500 ft
< 800m
< 200 ft
Symbols :   Thunderstorms  Fog  Heavy snow  Heavy precipitations  Wind > 20 kt
SIGMETs :     Misc.  Thunderstorms  Icing  Turbulence  Mountain Waves  Volcanic Ashes






- Airport Elevation : 1766 ft


ETHL - Laupheim AB

CURRENT METAR :
  • 282220Z AUTO 22012KT 3300 // ////// 10/07 Q1016 ///

EXPIRED METARs :
  • 282145Z 21009KT 9999 FEW020 SCT040 OVC090 09/07 Q1016 BLU FCST CNL
  • 282120Z 19007KT 9999 -RA FEW018 SCT035 OVC060 09/07 Q1016 BLU BLU TEMPO WHT
  • 282104Z 22008KT 7000 -RA FEW018 OVC040 10/07 Q1017 WHT BLU TEMPO WHT
  • 282020Z 21005KT 9999 FEW020 SCT045 BKN080 10/06 Q1016 BLU BLU TEMPO WHT

TAF TAF ETHL
Valid from the 28 at 21:00 until the 29 at 06:00 UTC


282020Z 2821/2906 22008KT 9999 NSW FEW020 BKN060
TEMPO 2821/2824 20010G20KT 7000 -SHRA BKN015TCU
TEMPO 2900/2906 20012G25KT 4000 SHRA BKN010 BKN015TCU



MET'MAP, your aeronautical weather chart ! - Copyright ORBIFLY December 2007 - Disclaimer

ORBIFLY MET'MAP TEAM :

Programming & Development : Alexandra Zaïnal
Concept & original design : Baudouin d'Aumeries
Assistance for programming : Marc-Olivier Méhu
Technical & hardware support : Manuel Goepfert

Contact : metmap@orbifly.com




SOURCES & CREDITS :

   NOAA